sensor_id;sensor_type;location;lat;lon;timestamp;P1;durP1;ratioP1;P2;durP2;ratioP2
16522;SDS011;19889;52.546;13.348;2023-08-31T00:01:11;4.53;;;4.07;;
16522;SDS011;19889;52.546;13.348;2023-08-31T00:03:39;5.72;;;3.88;;
16522;SDS011;19889;52.546;13.348;2023-08-31T00:06:06;4.68;;;4.20;;
16522;SDS011;19889;52.546;13.348;2023-08-31T00:08:34;5.22;;;3.63;;
16522;SDS011;19889;52.546;13.348;2023-08-31T00:11:01;4.82;;;3.30;;
16522;SDS011;19889;52.546;13.348;2023-08-31T00:13:28;3.25;;;2.92;;
16522;SDS011;19889;52.546;13.348;2023-08-31T00:15:56;3.53;;;2.92;;
16522;SDS011;19889;52.546;13.348;2023-08-31T00:18:26;2.95;;;2.58;;
16522;SDS011;19889;52.546;13.348;2023-08-31T00:20:53;4.93;;;3.03;;
16522;SDS011;19889;52.546;13.348;2023-08-31T00:23:21;4.00;;;2.90;;
16522;SDS011;19889;52.546;13.348;2023-08-31T00:25:48;3.13;;;2.83;;
16522;SDS011;19889;52.546;13.348;2023-08-31T00:28:17;3.25;;;2.45;;
16522;SDS011;19889;52.546;13.348;2023-08-31T00:30:45;2.42;;;2.22;;
16522;SDS011;19889;52.546;13.348;2023-08-31T00:33:13;2.40;;;2.20;;
16522;SDS011;19889;52.546;13.348;2023-08-31T00:35:43;3.75;;;2.78;;
16522;SDS011;19889;52.546;13.348;2023-08-31T00:38:11;2.47;;;2.28;;
16522;SDS011;19889;52.546;13.348;2023-08-31T00:40:39;2.72;;;2.53;;
16522;SDS011;19889;52.546;13.348;2023-08-31T00:43:08;2.60;;;2.40;;
16522;SDS011;19889;52.546;13.348;2023-08-31T00:45:35;3.58;;;2.50;;
16522;SDS011;19889;52.546;13.348;2023-08-31T00:48:04;2.75;;;2.55;;
16522;SDS011;19889;52.546;13.348;2023-08-31T00:50:32;2.42;;;2.22;;
16522;SDS011;19889;52.546;13.348;2023-08-31T00:53:02;2.72;;;2.53;;
16522;SDS011;19889;52.546;13.348;2023-08-31T00:55:31;3.03;;;2.58;;
16522;SDS011;19889;52.546;13.348;2023-08-31T00:57:58;3.47;;;2.88;;
16522;SDS011;19889;52.546;13.348;2023-08-31T01:00:28;3.22;;;2.80;;
16522;SDS011;19889;52.546;13.348;2023-08-31T01:03:01;3.00;;;2.80;;
16522;SDS011;19889;52.546;13.348;2023-08-31T01:05:37;3.00;;;2.70;;
16522;SDS011;19889;52.546;13.348;2023-08-31T01:08:11;2.88;;;2.67;;
16522;SDS011;19889;52.546;13.348;2023-08-31T01:10:41;3.63;;;3.00;;
16522;SDS011;19889;52.546;13.348;2023-08-31T01:13:11;2.97;;;2.78;;
16522;SDS011;19889;52.546;13.348;2023-08-31T01:15:41;3.67;;;3.20;;
16522;SDS011;19889;52.546;13.348;2023-08-31T01:18:09;3.35;;;2.97;;
16522;SDS011;19889;52.546;13.348;2023-08-31T01:20:38;3.55;;;3.25;;
16522;SDS011;19889;52.546;13.348;2023-08-31T01:23:09;4.40;;;2.78;;
16522;SDS011;19889;52.546;13.348;2023-08-31T01:25:39;3.72;;;3.42;;
16522;SDS011;19889;52.546;13.348;2023-08-31T01:28:08;3.28;;;2.97;;
16522;SDS011;19889;52.546;13.348;2023-08-31T01:30:36;3.40;;;3.10;;
16522;SDS011;19889;52.546;13.348;2023-08-31T01:33:04;3.15;;;2.85;;
16522;SDS011;19889;52.546;13.348;2023-08-31T01:35:34;3.22;;;2.95;;
16522;SDS011;19889;52.546;13.348;2023-08-31T01:38:03;3.00;;;2.65;;
16522;SDS011;19889;52.546;13.348;2023-08-31T01:40:36;3.60;;;2.47;;
16522;SDS011;19889;52.546;13.348;2023-08-31T01:43:06;2.80;;;2.45;;
16522;SDS011;19889;52.546;13.348;2023-08-31T01:45:35;2.63;;;2.40;;
16522;SDS011;19889;52.546;13.348;2023-08-31T01:48:03;3.42;;;2.60;;
16522;SDS011;19889;52.546;13.348;2023-08-31T01:50:31;2.30;;;2.10;;
16522;SDS011;19889;52.546;13.348;2023-08-31T01:52:58;2.20;;;2.10;;
16522;SDS011;19889;52.546;13.348;2023-08-31T01:55:25;2.30;;;2.10;;
16522;SDS011;19889;52.546;13.348;2023-08-31T01:57:53;2.92;;;2.25;;
16522;SDS011;19889;52.546;13.348;2023-08-31T02:00:26;2.05;;;1.92;;
16522;SDS011;19889;52.546;13.348;2023-08-31T02:02:55;2.47;;;2.28;;
16522;SDS011;19889;52.546;13.348;2023-08-31T02:05:22;1.90;;;1.80;;
16522;SDS011;19889;52.546;13.348;2023-08-31T02:07:52;2.33;;;2.17;;
16522;SDS011;19889;52.546;13.348;2023-08-31T02:10:19;1.83;;;1.70;;
16522;SDS011;19889;52.546;13.348;2023-08-31T02:12:46;1.60;;;1.50;;
16522;SDS011;19889;52.546;13.348;2023-08-31T02:15:14;1.90;;;1.80;;
16522;SDS011;19889;52.546;13.348;2023-08-31T02:17:42;3.28;;;2.10;;
16522;SDS011;19889;52.546;13.348;2023-08-31T02:20:10;1.92;;;1.80;;
16522;SDS011;19889;52.546;13.348;2023-08-31T02:22:39;1.50;;;1.40;;
16522;SDS011;19889;52.546;13.348;2023-08-31T02:25:07;1.90;;;1.80;;
16522;SDS011;19889;52.546;13.348;2023-08-31T02:27:34;1.90;;;1.67;;
16522;SDS011;19889;52.546;13.348;2023-08-31T02:30:02;2.20;;;1.80;;
16522;SDS011;19889;52.546;13.348;2023-08-31T02:32:30;1.92;;;1.73;;
16522;SDS011;19889;52.546;13.348;2023-08-31T02:34:59;1.83;;;1.73;;
16522;SDS011;19889;52.546;13.348;2023-08-31T02:37:27;1.75;;;1.60;;
16522;SDS011;19889;52.546;13.348;2023-08-31T02:39:54;1.92;;;1.73;;
16522;SDS011;19889;52.546;13.348;2023-08-31T02:42:21;1.60;;;1.50;;
16522;SDS011;19889;52.546;13.348;2023-08-31T02:44:51;2.13;;;1.92;;
16522;SDS011;19889;52.546;13.348;2023-08-31T02:47:19;1.98;;;1.88;;
16522;SDS011;19889;52.546;13.348;2023-08-31T02:49:47;2.35;;;1.50;;
16522;SDS011;19889;52.546;13.348;2023-08-31T02:52:15;2.55;;;1.75;;
16522;SDS011;19889;52.546;13.348;2023-08-31T02:54:43;1.92;;;1.83;;
16522;SDS011;19889;52.546;13.348;2023-08-31T02:57:10;3.05;;;2.05;;
16522;SDS011;19889;52.546;13.348;2023-08-31T02:59:38;1.85;;;1.75;;
16522;SDS011;19889;52.546;13.348;2023-08-31T03:02:05;1.70;;;1.60;;
16522;SDS011;19889;52.546;13.348;2023-08-31T03:04:33;2.40;;;1.98;;
16522;SDS011;19889;52.546;13.348;2023-08-31T03:07:03;2.05;;;1.83;;
16522;SDS011;19889;52.546;13.348;2023-08-31T03:09:33;2.00;;;1.80;;
16522;SDS011;19889;52.546;13.348;2023-08-31T03:12:00;2.05;;;1.83;;
16522;SDS011;19889;52.546;13.348;2023-08-31T03:14:28;2.20;;;2.00;;
16522;SDS011;19889;52.546;13.348;2023-08-31T03:16:56;2.35;;;1.75;;
16522;SDS011;19889;52.546;13.348;2023-08-31T03:19:23;1.85;;;1.73;;
16522;SDS011;19889;52.546;13.348;2023-08-31T03:21:51;2.05;;;1.85;;
16522;SDS011;19889;52.546;13.348;2023-08-31T03:24:20;2.15;;;1.95;;
16522;SDS011;19889;52.546;13.348;2023-08-31T03:26:50;2.47;;;2.03;;
16522;SDS011;19889;52.546;13.348;2023-08-31T03:29:17;2.10;;;1.90;;
16522;SDS011;19889;52.546;13.348;2023-08-31T03:31:44;2.50;;;2.10;;
16522;SDS011;19889;52.546;13.348;2023-08-31T03:34:12;2.53;;;2.00;;
16522;SDS011;19889;52.546;13.348;2023-08-31T03:36:40;2.20;;;2.00;;
16522;SDS011;19889;52.546;13.348;2023-08-31T03:39:08;3.42;;;1.95;;
16522;SDS011;19889;52.546;13.348;2023-08-31T03:41:36;2.33;;;2.13;;
16522;SDS011;19889;52.546;13.348;2023-08-31T03:44:08;2.40;;;1.98;;
16522;SDS011;19889;52.546;13.348;2023-08-31T03:46:36;2.55;;;2.13;;
16522;SDS011;19889;52.546;13.348;2023-08-31T03:49:04;2.78;;;2.20;;
16522;SDS011;19889;52.546;13.348;2023-08-31T03:51:31;2.25;;;2.05;;
16522;SDS011;19889;52.546;13.348;2023-08-31T03:54:00;2.30;;;2.10;;
16522;SDS011;19889;52.546;13.348;2023-08-31T03:56:27;2.10;;;1.90;;
16522;SDS011;19889;52.546;13.348;2023-08-31T03:58:55;2.38;;;2.17;;
16522;SDS011;19889;52.546;13.348;2023-08-31T04:01:23;2.70;;;2.05;;
16522;SDS011;19889;52.546;13.348;2023-08-31T04:03:51;2.50;;;2.30;;
16522;SDS011;19889;52.546;13.348;2023-08-31T04:06:18;2.50;;;2.30;;
16522;SDS011;19889;52.546;13.348;2023-08-31T04:08:46;3.60;;;2.78;;
16522;SDS011;19889;52.546;13.348;2023-08-31T04:11:13;3.10;;;2.90;;
16522;SDS011;19889;52.546;13.348;2023-08-31T04:13:40;3.30;;;3.00;;
16522;SDS011;19889;52.546;13.348;2023-08-31T04:16:08;4.15;;;2.78;;
16522;SDS011;19889;52.546;13.348;2023-08-31T04:18:36;2.75;;;2.40;;
16522;SDS011;19889;52.546;13.348;2023-08-31T04:21:04;4.18;;;3.00;;
16522;SDS011;19889;52.546;13.348;2023-08-31T04:23:32;3.95;;;3.60;;
16522;SDS011;19889;52.546;13.348;2023-08-31T04:26:00;3.67;;;3.17;;
16522;SDS011;19889;52.546;13.348;2023-08-31T04:28:28;4.25;;;3.30;;
16522;SDS011;19889;52.546;13.348;2023-08-31T04:30:57;5.15;;;3.25;;
16522;SDS011;19889;52.546;13.348;2023-08-31T04:33:24;3.40;;;3.10;;
16522;SDS011;19889;52.546;13.348;2023-08-31T04:35:53;3.85;;;3.53;;
16522;SDS011;19889;52.546;13.348;2023-08-31T04:38:21;3.70;;;3.40;;
16522;SDS011;19889;52.546;13.348;2023-08-31T04:40:48;4.32;;;3.70;;
16522;SDS011;19889;52.546;13.348;2023-08-31T04:43:15;5.85;;;3.42;;
16522;SDS011;19889;52.546;13.348;2023-08-31T04:45:43;4.18;;;3.72;;
16522;SDS011;19889;52.546;13.348;2023-08-31T04:48:10;4.57;;;3.83;;
16522;SDS011;19889;52.546;13.348;2023-08-31T04:50:39;4.50;;;3.67;;
16522;SDS011;19889;52.546;13.348;2023-08-31T04:53:08;5.50;;;4.07;;
16522;SDS011;19889;52.546;13.348;2023-08-31T04:55:35;4.85;;;4.32;;
16522;SDS011;19889;52.546;13.348;2023-08-31T04:58:03;4.57;;;3.92;;
16522;SDS011;19889;52.546;13.348;2023-08-31T05:00:30;5.63;;;3.65;;
16522;SDS011;19889;52.546;13.348;2023-08-31T05:02:58;3.88;;;3.47;;
16522;SDS011;19889;52.546;13.348;2023-08-31T05:05:25;5.30;;;3.90;;
16522;SDS011;19889;52.546;13.348;2023-08-31T05:07:53;4.40;;;3.95;;
16522;SDS011;19889;52.546;13.348;2023-08-31T05:10:21;4.60;;;3.88;;
16522;SDS011;19889;52.546;13.348;2023-08-31T05:12:49;4.63;;;3.45;;
16522;SDS011;19889;52.546;13.348;2023-08-31T05:15:16;4.13;;;3.72;;
16522;SDS011;19889;52.546;13.348;2023-08-31T05:17:44;6.15;;;4.30;;
16522;SDS011;19889;52.546;13.348;2023-08-31T05:20:12;5.07;;;4.00;;
16522;SDS011;19889;52.546;13.348;2023-08-31T05:22:40;4.70;;;4.22;;
16522;SDS011;19889;52.546;13.348;2023-08-31T05:25:07;4.75;;;4.30;;
16522;SDS011;19889;52.546;13.348;2023-08-31T05:27:36;4.65;;;4.20;;
16522;SDS011;19889;52.546;13.348;2023-08-31T05:30:04;4.53;;;4.13;;
16522;SDS011;19889;52.546;13.348;2023-08-31T05:32:32;5.75;;;4.25;;
16522;SDS011;19889;52.546;13.348;2023-08-31T05:35:00;4.68;;;4.25;;
16522;SDS011;19889;52.546;13.348;2023-08-31T05:37:31;5.05;;;4.55;;
16522;SDS011;19889;52.546;13.348;2023-08-31T05:39:58;5.13;;;4.15;;
16522;SDS011;19889;52.546;13.348;2023-08-31T05:42:26;6.30;;;4.18;;
16522;SDS011;19889;52.546;13.348;2023-08-31T05:44:54;5.15;;;4.65;;
16522;SDS011;19889;52.546;13.348;2023-08-31T05:47:22;7.18;;;4.47;;
16522;SDS011;19889;52.546;13.348;2023-08-31T05:49:50;5.20;;;4.68;;
16522;SDS011;19889;52.546;13.348;2023-08-31T05:52:17;8.18;;;5.20;;
16522;SDS011;19889;52.546;13.348;2023-08-31T05:54:45;5.20;;;4.72;;
16522;SDS011;19889;52.546;13.348;2023-08-31T05:57:12;8.00;;;5.20;;
16522;SDS011;19889;52.546;13.348;2023-08-31T05:59:39;5.47;;;4.97;;
16522;SDS011;19889;52.546;13.348;2023-08-31T06:02:08;5.55;;;4.75;;
16522;SDS011;19889;52.546;13.348;2023-08-31T06:04:36;5.18;;;4.65;;
16522;SDS011;19889;52.546;13.348;2023-08-31T06:07:03;6.55;;;5.30;;
16522;SDS011;19889;52.546;13.348;2023-08-31T06:09:31;5.93;;;5.32;;
16522;SDS011;19889;52.546;13.348;2023-08-31T06:11:58;6.90;;;5.35;;
16522;SDS011;19889;52.546;13.348;2023-08-31T06:14:25;6.00;;;5.40;;
16522;SDS011;19889;52.546;13.348;2023-08-31T06:16:53;6.25;;;5.00;;
16522;SDS011;19889;52.546;13.348;2023-08-31T06:19:21;5.10;;;4.60;;
16522;SDS011;19889;52.546;13.348;2023-08-31T06:21:49;5.18;;;4.68;;
16522;SDS011;19889;52.546;13.348;2023-08-31T06:24:16;6.35;;;4.82;;
16522;SDS011;19889;52.546;13.348;2023-08-31T06:26:44;6.80;;;4.63;;
16522;SDS011;19889;52.546;13.348;2023-08-31T06:29:11;6.45;;;5.13;;
16522;SDS011;19889;52.546;13.348;2023-08-31T06:31:39;5.80;;;5.20;;
16522;SDS011;19889;52.546;13.348;2023-08-31T06:34:06;5.15;;;4.38;;
16522;SDS011;19889;52.546;13.348;2023-08-31T06:36:35;5.80;;;4.72;;
16522;SDS011;19889;52.546;13.348;2023-08-31T06:39:02;4.97;;;4.53;;
16522;SDS011;19889;52.546;13.348;2023-08-31T06:41:39;7.65;;;4.80;;
16522;SDS011;19889;52.546;13.348;2023-08-31T06:44:06;6.35;;;4.97;;
16522;SDS011;19889;52.546;13.348;2023-08-31T06:46:34;5.68;;;4.75;;
16522;SDS011;19889;52.546;13.348;2023-08-31T06:49:03;5.03;;;4.53;;
16522;SDS011;19889;52.546;13.348;2023-08-31T06:51:31;6.25;;;5.25;;
16522;SDS011;19889;52.546;13.348;2023-08-31T06:54:00;7.47;;;6.70;;
16522;SDS011;19889;52.546;13.348;2023-08-31T06:56:31;6.32;;;4.93;;
16522;SDS011;19889;52.546;13.348;2023-08-31T06:58:59;8.40;;;4.50;;
16522;SDS011;19889;52.546;13.348;2023-08-31T07:01:27;5.13;;;4.63;;
16522;SDS011;19889;52.546;13.348;2023-08-31T07:03:55;6.40;;;4.75;;
16522;SDS011;19889;52.546;13.348;2023-08-31T07:06:23;5.00;;;4.43;;
16522;SDS011;19889;52.546;13.348;2023-08-31T07:08:50;7.63;;;4.70;;
16522;SDS011;19889;52.546;13.348;2023-08-31T07:11:19;7.30;;;4.72;;
16522;SDS011;19889;52.546;13.348;2023-08-31T07:13:46;5.07;;;4.45;;
16522;SDS011;19889;52.546;13.348;2023-08-31T07:16:14;7.75;;;4.65;;
16522;SDS011;19889;52.546;13.348;2023-08-31T07:18:41;4.80;;;4.22;;
16522;SDS011;19889;52.546;13.348;2023-08-31T07:21:09;5.25;;;4.43;;
16522;SDS011;19889;52.546;13.348;2023-08-31T07:23:36;4.22;;;3.65;;
16522;SDS011;19889;52.546;13.348;2023-08-31T07:26:03;6.45;;;4.22;;
16522;SDS011;19889;52.546;13.348;2023-08-31T07:28:32;5.30;;;3.28;;
16522;SDS011;19889;52.546;13.348;2023-08-31T07:31:00;6.10;;;3.38;;
16522;SDS011;19889;52.546;13.348;2023-08-31T07:33:28;6.60;;;3.53;;
16522;SDS011;19889;52.546;13.348;2023-08-31T07:35:56;5.03;;;3.40;;
16522;SDS011;19889;52.546;13.348;2023-08-31T07:38:24;4.68;;;3.47;;
16522;SDS011;19889;52.546;13.348;2023-08-31T07:40:52;6.13;;;4.03;;
16522;SDS011;19889;52.546;13.348;2023-08-31T07:43:19;8.70;;;3.55;;
16522;SDS011;19889;52.546;13.348;2023-08-31T07:45:48;4.57;;;3.40;;
16522;SDS011;19889;52.546;13.348;2023-08-31T07:48:16;6.10;;;4.00;;
16522;SDS011;19889;52.546;13.348;2023-08-31T07:50:43;5.03;;;4.20;;
16522;SDS011;19889;52.546;13.348;2023-08-31T07:53:11;5.30;;;3.90;;
16522;SDS011;19889;52.546;13.348;2023-08-31T07:55:39;6.00;;;3.20;;
16522;SDS011;19889;52.546;13.348;2023-08-31T07:58:06;9.55;;;3.42;;
16522;SDS011;19889;52.546;13.348;2023-08-31T08:00:34;9.48;;;3.20;;
16522;SDS011;19889;52.546;13.348;2023-08-31T08:03:03;3.88;;;2.95;;
16522;SDS011;19889;52.546;13.348;2023-08-31T08:05:31;6.97;;;2.85;;
16522;SDS011;19889;52.546;13.348;2023-08-31T08:07:58;9.50;;;3.30;;
16522;SDS011;19889;52.546;13.348;2023-08-31T08:10:25;4.43;;;3.20;;
16522;SDS011;19889;52.546;13.348;2023-08-31T08:12:53;3.63;;;3.17;;
16522;SDS011;19889;52.546;13.348;2023-08-31T08:15:21;4.53;;;3.00;;
16522;SDS011;19889;52.546;13.348;2023-08-31T08:17:48;2.97;;;2.55;;
16522;SDS011;19889;52.546;13.348;2023-08-31T08:20:21;2.90;;;2.70;;
16522;SDS011;19889;52.546;13.348;2023-08-31T08:22:48;6.93;;;2.70;;
16522;SDS011;19889;52.546;13.348;2023-08-31T08:25:17;6.45;;;3.38;;
16522;SDS011;19889;52.546;13.348;2023-08-31T08:27:45;4.88;;;2.80;;
16522;SDS011;19889;52.546;13.348;2023-08-31T08:30:12;3.75;;;2.80;;
16522;SDS011;19889;52.546;13.348;2023-08-31T08:32:40;2.60;;;2.40;;
16522;SDS011;19889;52.546;13.348;2023-08-31T08:35:08;4.00;;;2.53;;
16522;SDS011;19889;52.546;13.348;2023-08-31T08:37:37;3.78;;;2.47;;
16522;SDS011;19889;52.546;13.348;2023-08-31T08:40:05;4.15;;;2.80;;
16522;SDS011;19889;52.546;13.348;2023-08-31T08:42:33;3.95;;;2.13;;
16522;SDS011;19889;52.546;13.348;2023-08-31T08:45:06;4.88;;;2.10;;
16522;SDS011;19889;52.546;13.348;2023-08-31T08:47:35;6.05;;;1.88;;
16522;SDS011;19889;52.546;13.348;2023-08-31T08:50:03;2.03;;;1.73;;
16522;SDS011;19889;52.546;13.348;2023-08-31T08:52:30;3.67;;;1.88;;
16522;SDS011;19889;52.546;13.348;2023-08-31T08:55:04;6.70;;;1.88;;
16522;SDS011;19889;52.546;13.348;2023-08-31T08:57:32;2.40;;;1.63;;
16522;SDS011;19889;52.546;13.348;2023-08-31T08:59:59;3.28;;;1.77;;
16522;SDS011;19889;52.546;13.348;2023-08-31T09:02:28;3.50;;;1.70;;
16522;SDS011;19889;52.546;13.348;2023-08-31T09:04:55;3.25;;;1.80;;
16522;SDS011;19889;52.546;13.348;2023-08-31T09:07:23;2.75;;;1.50;;
16522;SDS011;19889;52.546;13.348;2023-08-31T09:09:52;2.58;;;1.55;;
16522;SDS011;19889;52.546;13.348;2023-08-31T09:12:22;3.53;;;2.65;;
16522;SDS011;19889;52.546;13.348;2023-08-31T09:14:56;4.32;;;1.80;;
16522;SDS011;19889;52.546;13.348;2023-08-31T09:17:24;2.17;;;1.70;;
16522;SDS011;19889;52.546;13.348;2023-08-31T09:19:58;2.80;;;1.67;;
16522;SDS011;19889;52.546;13.348;2023-08-31T09:22:26;3.63;;;1.67;;
16522;SDS011;19889;52.546;13.348;2023-08-31T09:24:54;3.45;;;1.65;;
16522;SDS011;19889;52.546;13.348;2023-08-31T09:27:23;3.08;;;1.77;;
16522;SDS011;19889;52.546;13.348;2023-08-31T09:29:50;3.58;;;2.50;;
16522;SDS011;19889;52.546;13.348;2023-08-31T09:32:18;4.18;;;1.98;;
16522;SDS011;19889;52.546;13.348;2023-08-31T09:34:45;2.75;;;1.90;;
16522;SDS011;19889;52.546;13.348;2023-08-31T09:37:15;4.53;;;2.30;;
16522;SDS011;19889;52.546;13.348;2023-08-31T09:39:42;2.28;;;1.88;;
16522;SDS011;19889;52.546;13.348;2023-08-31T09:42:10;2.42;;;1.95;;
16522;SDS011;19889;52.546;13.348;2023-08-31T09:44:42;2.13;;;1.80;;
16522;SDS011;19889;52.546;13.348;2023-08-31T09:47:09;4.55;;;2.25;;
16522;SDS011;19889;52.546;13.348;2023-08-31T09:49:37;2.40;;;2.15;;
16522;SDS011;19889;52.546;13.348;2023-08-31T09:52:06;4.25;;;2.13;;
16522;SDS011;19889;52.546;13.348;2023-08-31T09:54:34;6.43;;;2.40;;
16522;SDS011;19889;52.546;13.348;2023-08-31T09:57:02;3.67;;;2.10;;
16522;SDS011;19889;52.546;13.348;2023-08-31T09:59:30;4.10;;;1.98;;
16522;SDS011;19889;52.546;13.348;2023-08-31T10:02:00;2.30;;;1.77;;
16522;SDS011;19889;52.546;13.348;2023-08-31T10:04:29;7.43;;;5.65;;
16522;SDS011;19889;52.546;13.348;2023-08-31T10:07:00;5.32;;;4.30;;
16522;SDS011;19889;52.546;13.348;2023-08-31T10:09:28;7.57;;;5.03;;
16522;SDS011;19889;52.546;13.348;2023-08-31T10:11:55;6.90;;;4.43;;
16522;SDS011;19889;52.546;13.348;2023-08-31T10:14:23;8.48;;;4.30;;
16522;SDS011;19889;52.546;13.348;2023-08-31T10:16:51;5.88;;;2.80;;
16522;SDS011;19889;52.546;13.348;2023-08-31T10:19:21;9.05;;;4.22;;
16522;SDS011;19889;52.546;13.348;2023-08-31T10:21:49;6.88;;;2.60;;
16522;SDS011;19889;52.546;13.348;2023-08-31T10:24:16;6.13;;;2.00;;
16522;SDS011;19889;52.546;13.348;2023-08-31T10:26:43;3.72;;;2.58;;
16522;SDS011;19889;52.546;13.348;2023-08-31T10:29:25;6.40;;;2.40;;
16522;SDS011;19889;52.546;13.348;2023-08-31T10:31:53;4.10;;;1.60;;
16522;SDS011;19889;52.546;13.348;2023-08-31T10:34:23;1.88;;;1.63;;
16522;SDS011;19889;52.546;13.348;2023-08-31T10:37:00;1.98;;;1.45;;
16522;SDS011;19889;52.546;13.348;2023-08-31T10:39:36;5.15;;;3.95;;
16522;SDS011;19889;52.546;13.348;2023-08-31T10:42:04;1.77;;;1.42;;
16522;SDS011;19889;52.546;13.348;2023-08-31T10:44:32;2.22;;;1.40;;
16522;SDS011;19889;52.546;13.348;2023-08-31T10:46:59;3.00;;;1.50;;
16522;SDS011;19889;52.546;13.348;2023-08-31T10:49:29;3.08;;;1.50;;
16522;SDS011;19889;52.546;13.348;2023-08-31T10:52:14;4.78;;;2.20;;
16522;SDS011;19889;52.546;13.348;2023-08-31T10:54:42;4.63;;;2.50;;
16522;SDS011;19889;52.546;13.348;2023-08-31T10:57:09;3.30;;;2.20;;
16522;SDS011;19889;52.546;13.348;2023-08-31T10:59:47;5.07;;;2.72;;
16522;SDS011;19889;52.546;13.348;2023-08-31T11:02:29;4.45;;;2.35;;
16522;SDS011;19889;52.546;13.348;2023-08-31T11:05:05;4.45;;;3.03;;
16522;SDS011;19889;52.546;13.348;2023-08-31T11:07:33;3.70;;;2.40;;
16522;SDS011;19889;52.546;13.348;2023-08-31T11:10:11;4.03;;;2.03;;
16522;SDS011;19889;52.546;13.348;2023-08-31T11:12:39;3.03;;;1.38;;
16522;SDS011;19889;52.546;13.348;2023-08-31T11:15:06;2.00;;;1.80;;
16522;SDS011;19889;52.546;13.348;2023-08-31T11:17:34;3.53;;;1.60;;
16522;SDS011;19889;52.546;13.348;2023-08-31T11:20:03;3.15;;;1.95;;
16522;SDS011;19889;52.546;13.348;2023-08-31T11:22:31;2.03;;;1.70;;
16522;SDS011;19889;52.546;13.348;2023-08-31T11:24:59;4.30;;;1.90;;
16522;SDS011;19889;52.546;13.348;2023-08-31T11:27:26;1.98;;;1.67;;
16522;SDS011;19889;52.546;13.348;2023-08-31T11:29:54;11.57;;;7.25;;
16522;SDS011;19889;52.546;13.348;2023-08-31T11:32:22;2.47;;;2.10;;
16522;SDS011;19889;52.546;13.348;2023-08-31T11:34:50;2.95;;;2.10;;
16522;SDS011;19889;52.546;13.348;2023-08-31T11:37:19;3.75;;;1.70;;
16522;SDS011;19889;52.546;13.348;2023-08-31T11:39:48;2.17;;;1.77;;
16522;SDS011;19889;52.546;13.348;2023-08-31T11:42:16;1.70;;;1.50;;
16522;SDS011;19889;52.546;13.348;2023-08-31T11:44:44;3.45;;;1.70;;
16522;SDS011;19889;52.546;13.348;2023-08-31T11:47:12;4.03;;;3.15;;
16522;SDS011;19889;52.546;13.348;2023-08-31T11:49:40;3.00;;;2.00;;
16522;SDS011;19889;52.546;13.348;2023-08-31T11:52:08;3.78;;;1.90;;
16522;SDS011;19889;52.546;13.348;2023-08-31T11:54:38;3.05;;;1.70;;
16522;SDS011;19889;52.546;13.348;2023-08-31T11:57:06;2.80;;;1.70;;
16522;SDS011;19889;52.546;13.348;2023-08-31T11:59:34;3.90;;;2.70;;
16522;SDS011;19889;52.546;13.348;2023-08-31T12:02:05;2.13;;;1.95;;
16522;SDS011;19889;52.546;13.348;2023-08-31T12:04:33;2.70;;;2.28;;
16522;SDS011;19889;52.546;13.348;2023-08-31T12:07:01;2.88;;;1.88;;
16522;SDS011;19889;52.546;13.348;2023-08-31T12:09:30;2.78;;;1.95;;
16522;SDS011;19889;52.546;13.348;2023-08-31T12:11:59;2.83;;;2.00;;
16522;SDS011;19889;52.546;13.348;2023-08-31T12:14:27;2.78;;;1.95;;
16522;SDS011;19889;52.546;13.348;2023-08-31T12:16:59;2.50;;;1.73;;
16522;SDS011;19889;52.546;13.348;2023-08-31T12:19:28;3.22;;;1.67;;
16522;SDS011;19889;52.546;13.348;2023-08-31T12:21:57;3.55;;;1.90;;
16522;SDS011;19889;52.546;13.348;2023-08-31T12:24:24;2.00;;;1.80;;
16522;SDS011;19889;52.546;13.348;2023-08-31T12:26:52;4.35;;;1.77;;
16522;SDS011;19889;52.546;13.348;2023-08-31T12:29:21;6.35;;;2.50;;
16522;SDS011;19889;52.546;13.348;2023-08-31T12:31:49;2.30;;;2.10;;
16522;SDS011;19889;52.546;13.348;2023-08-31T12:34:16;2.17;;;1.98;;
16522;SDS011;19889;52.546;13.348;2023-08-31T12:36:44;2.33;;;2.13;;
16522;SDS011;19889;52.546;13.348;2023-08-31T12:39:11;4.50;;;2.15;;
16522;SDS011;19889;52.546;13.348;2023-08-31T12:41:39;4.13;;;2.20;;
16522;SDS011;19889;52.546;13.348;2023-08-31T12:44:06;4.97;;;2.88;;
16522;SDS011;19889;52.546;13.348;2023-08-31T12:46:35;3.15;;;2.40;;
16522;SDS011;19889;52.546;13.348;2023-08-31T12:49:04;2.55;;;2.10;;
16522;SDS011;19889;52.546;13.348;2023-08-31T12:51:32;20.08;;;17.35;;
16522;SDS011;19889;52.546;13.348;2023-08-31T12:53:59;8.57;;;6.75;;
16522;SDS011;19889;52.546;13.348;2023-08-31T12:56:26;4.50;;;3.97;;
16522;SDS011;19889;52.546;13.348;2023-08-31T12:58:54;5.13;;;3.00;;
16522;SDS011;19889;52.546;13.348;2023-08-31T13:01:21;3.45;;;2.20;;
16522;SDS011;19889;52.546;13.348;2023-08-31T13:03:52;2.95;;;2.05;;
16522;SDS011;19889;52.546;13.348;2023-08-31T13:06:19;2.63;;;2.00;;
16522;SDS011;19889;52.546;13.348;2023-08-31T13:08:46;3.03;;;1.98;;
16522;SDS011;19889;52.546;13.348;2023-08-31T13:11:15;2.92;;;2.53;;
16522;SDS011;19889;52.546;13.348;2023-08-31T13:13:48;3.63;;;1.88;;
16522;SDS011;19889;52.546;13.348;2023-08-31T13:16:16;3.90;;;2.05;;
16522;SDS011;19889;52.546;13.348;2023-08-31T13:18:43;3.08;;;1.40;;
16522;SDS011;19889;52.546;13.348;2023-08-31T13:21:12;2.53;;;1.60;;
16522;SDS011;19889;52.546;13.348;2023-08-31T13:23:44;1.73;;;1.10;;
16522;SDS011;19889;52.546;13.348;2023-08-31T13:26:12;2.03;;;1.50;;
16522;SDS011;19889;52.546;13.348;2023-08-31T13:28:39;1.63;;;1.35;;
16522;SDS011;19889;52.546;13.348;2023-08-31T13:31:08;2.13;;;1.30;;
16522;SDS011;19889;52.546;13.348;2023-08-31T13:33:37;1.80;;;1.15;;
16522;SDS011;19889;52.546;13.348;2023-08-31T13:36:04;1.23;;;1.15;;
16522;SDS011;19889;52.546;13.348;2023-08-31T13:38:36;1.60;;;1.35;;
16522;SDS011;19889;52.546;13.348;2023-08-31T13:41:03;8.02;;;4.28;;
16522;SDS011;19889;52.546;13.348;2023-08-31T13:43:30;3.15;;;2.63;;
16522;SDS011;19889;52.546;13.348;2023-08-31T13:45:58;2.33;;;1.85;;
16522;SDS011;19889;52.546;13.348;2023-08-31T13:48:25;3.83;;;1.90;;
16522;SDS011;19889;52.546;13.348;2023-08-31T13:50:52;1.75;;;1.60;;
16522;SDS011;19889;52.546;13.348;2023-08-31T13:53:20;2.17;;;1.73;;
16522;SDS011;19889;52.546;13.348;2023-08-31T13:55:49;5.05;;;1.80;;
16522;SDS011;19889;52.546;13.348;2023-08-31T13:58:16;4.63;;;1.45;;
16522;SDS011;19889;52.546;13.348;2023-08-31T14:00:43;2.05;;;1.85;;
16522;SDS011;19889;52.546;13.348;2023-08-31T14:03:11;2.75;;;2.53;;
16522;SDS011;19889;52.546;13.348;2023-08-31T14:05:38;1.60;;;1.27;;
16522;SDS011;19889;52.546;13.348;2023-08-31T14:08:06;2.13;;;1.40;;
16522;SDS011;19889;52.546;13.348;2023-08-31T14:10:33;2.47;;;2.28;;
16522;SDS011;19889;52.546;13.348;2023-08-31T14:13:02;5.82;;;4.60;;
16522;SDS011;19889;52.546;13.348;2023-08-31T14:15:30;4.53;;;2.72;;
16522;SDS011;19889;52.546;13.348;2023-08-31T14:17:58;2.53;;;2.10;;
16522;SDS011;19889;52.546;13.348;2023-08-31T14:20:25;3.38;;;2.58;;
16522;SDS011;19889;52.546;13.348;2023-08-31T14:22:52;4.90;;;3.65;;
16522;SDS011;19889;52.546;13.348;2023-08-31T14:25:20;4.47;;;4.07;;
16522;SDS011;19889;52.546;13.348;2023-08-31T14:27:50;2.17;;;1.60;;
16522;SDS011;19889;52.546;13.348;2023-08-31T14:30:19;1.88;;;1.48;;
16522;SDS011;19889;52.546;13.348;2023-08-31T14:32:46;2.03;;;1.33;;
16522;SDS011;19889;52.546;13.348;2023-08-31T14:35:14;2.72;;;2.25;;
16522;SDS011;19889;52.546;13.348;2023-08-31T14:37:41;3.10;;;1.90;;
16522;SDS011;19889;52.546;13.348;2023-08-31T14:40:09;1.63;;;1.13;;